createdAt,value
2019-05-18T00:00:54.119Z,77.98
2019-05-18T00:03:02.014Z,78.05
2019-05-18T00:05:10.344Z,78.13
2019-05-18T00:07:18.136Z,78.21
2019-05-18T00:09:26.035Z,78.13
2019-05-18T00:11:34.325Z,78.00
2019-05-18T00:13:42.279Z,77.82
2019-05-18T00:15:51.308Z,77.62
2019-05-18T00:17:59.231Z,77.40
2019-05-18T00:20:11.105Z,77.24
2019-05-18T00:22:18.986Z,77.14
2019-05-18T00:24:26.903Z,77.16
2019-05-18T00:26:34.789Z,77.23
2019-05-18T00:28:43.814Z,77.35
2019-05-18T00:30:52.046Z,77.51
2019-05-18T00:32:59.985Z,77.64
2019-05-18T00:35:09.705Z,77.87
2019-05-18T00:37:19.074Z,78.08
2019-05-18T00:39:27.137Z,78.68
2019-05-18T00:41:36.128Z,78.58
2019-05-18T00:43:44.038Z,78.63
2019-05-18T00:45:52.027Z,79.11
2019-05-18T00:48:00.559Z,78.95
2019-05-18T00:50:09.076Z,78.76
2019-05-18T00:52:16.931Z,78.74
2019-05-18T00:54:24.821Z,78.58
2019-05-18T00:56:32.744Z,78.35
2019-05-18T00:58:40.702Z,78.23
2019-05-18T01:00:48.591Z,78.19
2019-05-18T01:02:57.022Z,78.13
2019-05-18T01:05:06.233Z,78.08
2019-05-18T01:07:14.092Z,77.96
2019-05-18T01:09:22.033Z,77.89
2019-05-18T01:11:30.087Z,77.94
2019-05-18T01:13:38.108Z,77.94
2019-05-18T01:15:46.028Z,77.92
2019-05-18T01:17:57.394Z,77.86
2019-05-18T01:20:03.742Z,77.73
2019-05-18T01:22:12.699Z,77.57
2019-05-18T01:24:20.686Z,77.55
2019-05-18T01:26:28.572Z,77.63
2019-05-18T01:28:36.603Z,77.65
2019-05-18T01:30:46.375Z,77.60
2019-05-18T01:32:54.365Z,77.71
2019-05-18T01:35:02.307Z,77.95
2019-05-18T01:37:10.327Z,78.21
2019-05-18T01:39:18.344Z,78.39
2019-05-18T01:41:26.378Z,78.48
2019-05-18T01:43:34.270Z,78.51
2019-05-18T01:45:42.159Z,78.52
2019-05-18T01:47:50.085Z,78.47
2019-05-18T01:49:58.084Z,78.45
2019-05-18T01:52:06.066Z,78.58
2019-05-18T01:54:15.666Z,78.68
2019-05-18T01:56:23.883Z,78.83
2019-05-18T01:58:33.877Z,78.87
2019-05-18T02:00:41.821Z,78.96
2019-05-18T02:02:51.338Z,78.98
2019-05-18T02:04:59.237Z,79.02
2019-05-18T02:07:07.228Z,79.07
2019-05-18T02:09:15.162Z,79.08
2019-05-18T02:11:23.224Z,79.07
2019-05-18T02:13:31.212Z,79.04
2019-05-18T02:15:39.104Z,79.13
2019-05-18T02:17:47.062Z,78.98
2019-05-18T02:19:54.996Z,78.88
2019-05-18T02:22:02.955Z,78.87
2019-05-18T02:24:10.980Z,78.68
2019-05-18T02:26:18.945Z,78.70
2019-05-18T02:28:28.241Z,78.75
2019-05-18T02:30:36.474Z,78.64
2019-05-18T02:32:44.412Z,78.60
2019-05-18T02:34:52.302Z,78.51
2019-05-18T02:37:00.263Z,78.59
2019-05-18T02:39:09.592Z,78.61
2019-05-18T02:41:18.043Z,78.71
2019-05-18T02:43:25.929Z,78.73
2019-05-18T02:45:34.908Z,78.75
2019-05-18T02:47:42.806Z,78.73
2019-05-18T02:49:50.705Z,78.84
2019-05-18T02:51:58.714Z,78.98
2019-05-18T02:54:06.661Z,79.13
2019-05-18T02:56:14.558Z,79.28
2019-05-18T02:58:22.475Z,79.43
2019-05-18T03:00:31.268Z,79.55
2019-05-18T03:02:39.160Z,79.64
2019-05-18T03:04:47.231Z,79.76
2019-05-18T03:06:56.020Z,79.78
2019-05-18T03:09:05.755Z,79.91
2019-05-18T03:11:13.645Z,79.94
2019-05-18T03:13:22.033Z,80.03
2019-05-18T03:15:30.160Z,80.03
2019-05-18T03:17:38.202Z,80.02
2019-05-18T03:19:46.157Z,80.10
2019-05-18T03:21:54.143Z,80.13
2019-05-18T03:24:02.142Z,80.22
2019-05-18T03:26:10.030Z,80.39
2019-05-18T03:28:17.927Z,80.39
2019-05-18T03:30:25.909Z,80.35
2019-05-18T03:32:33.817Z,80.24
2019-05-18T03:34:41.706Z,80.13
2019-05-18T03:36:49.642Z,79.99
2019-05-18T03:38:58.006Z,79.86
2019-05-18T03:41:06.076Z,79.83
2019-05-18T03:43:13.990Z,79.81
2019-05-18T03:45:21.957Z,79.83
2019-05-18T03:47:29.913Z,79.87
2019-05-18T03:49:37.924Z,80.03
2019-05-18T03:51:45.989Z,80.12
2019-05-18T03:53:54.083Z,80.32
2019-05-18T03:56:02.200Z,80.39
2019-05-18T03:58:10.183Z,80.44
2019-05-18T04:00:19.653Z,80.40
2019-05-18T04:02:28.194Z,80.38
2019-05-18T04:04:36.081Z,80.32
2019-05-18T04:06:43.972Z,80.25
2019-05-18T04:08:51.994Z,80.18
2019-05-18T04:10:59.945Z,80.04
2019-05-18T04:13:08.894Z,79.83
2019-05-18T04:15:17.053Z,79.74
2019-05-18T04:17:25.048Z,79.62
2019-05-18T04:19:45.810Z,79.60
2019-05-18T04:21:43.823Z,79.51
2019-05-18T04:23:51.712Z,79.30
2019-05-18T04:25:59.602Z,79.33
2019-05-18T04:28:07.620Z,79.17
2019-05-18T04:30:15.961Z,78.88
2019-05-18T04:32:23.917Z,78.45
2019-05-18T04:34:31.833Z,78.13
2019-05-18T04:36:39.785Z,77.93
2019-05-18T04:38:47.588Z,77.71
2019-05-18T04:40:55.511Z,77.42
2019-05-18T04:43:03.406Z,77.41
2019-05-18T04:45:11.530Z,77.19
2019-05-18T04:47:19.571Z,76.31
2019-05-18T04:49:27.655Z,75.96
2019-05-18T04:51:35.646Z,75.77
2019-05-18T04:53:43.577Z,75.41
2019-05-18T04:55:51.471Z,75.00
2019-05-18T04:58:00.834Z,75.04
2019-05-18T05:00:10.288Z,74.98
2019-05-18T05:02:18.572Z,74.92
2019-05-18T05:04:27.267Z,74.99
2019-05-18T05:06:35.688Z,74.52
2019-05-18T05:08:44.156Z,74.01
2019-05-18T05:10:52.547Z,73.87
2019-05-18T05:13:01.515Z,73.50
2019-05-18T05:15:10.155Z,73.58
2019-05-18T05:17:18.534Z,73.37
2019-05-18T05:19:26.452Z,73.36
2019-05-18T05:21:36.350Z,73.39
2019-05-18T05:23:44.615Z,73.64
2019-05-18T05:25:52.937Z,73.19
2019-05-18T05:28:01.396Z,73.34
2019-05-18T05:30:10.197Z,73.55
2019-05-18T05:32:18.197Z,73.37
2019-05-18T05:34:26.102Z,73.13
2019-05-18T05:36:34.376Z,72.91
2019-05-18T05:38:42.490Z,72.33
2019-05-18T05:40:50.954Z,72.76
2019-05-18T05:42:58.967Z,72.17
2019-05-18T05:45:07.875Z,72.19
2019-05-18T05:47:16.031Z,72.04
2019-05-18T05:49:23.924Z,72.16
2019-05-18T05:51:31.935Z,71.95
2019-05-18T05:53:39.927Z,72.03
2019-05-18T05:55:47.825Z,72.00
2019-05-18T05:57:55.954Z,71.90
2019-05-18T06:00:06.234Z,71.85
2019-05-18T06:02:14.526Z,71.62
2019-05-18T06:04:22.442Z,70.93
2019-05-18T06:06:31.398Z,70.70
2019-05-18T06:08:39.793Z,71.06
2019-05-18T06:10:48.429Z,70.90
2019-05-18T06:12:56.844Z,70.22
2019-05-18T06:15:07.153Z,70.23
2019-05-18T06:17:15.580Z,69.60
2019-05-18T06:19:23.910Z,69.56
2019-05-18T06:21:32.789Z,69.31
2019-05-18T06:23:41.212Z,68.16
2019-05-18T06:25:49.603Z,68.27
2019-05-18T06:27:57.897Z,67.99
2019-05-18T06:30:08.441Z,67.77
2019-05-18T06:32:16.335Z,67.83
2019-05-18T06:34:24.398Z,67.31
2019-05-18T06:36:32.617Z,66.89
2019-05-18T06:38:41.542Z,65.30
2019-05-18T06:40:49.478Z,65.59
2019-05-18T06:42:57.798Z,64.80
2019-05-18T06:45:10.138Z,65.67
2019-05-18T06:47:18.088Z,65.62
2019-05-18T06:49:26.100Z,62.11
2019-05-18T06:51:33.976Z,61.39
2019-05-18T06:53:42.354Z,60.77
2019-05-18T06:55:52.103Z,60.35
2019-05-18T06:58:01.099Z,60.16
2019-05-18T07:00:11.426Z,59.36
2019-05-18T07:02:19.326Z,58.15
2019-05-18T07:04:27.275Z,58.34
2019-05-18T07:06:36.308Z,58.81
2019-05-18T07:08:44.695Z,57.73
2019-05-18T07:10:53.558Z,56.79
2019-05-18T07:13:01.956Z,56.65
2019-05-18T07:15:10.758Z,55.67
2019-05-18T07:17:19.081Z,55.60
2019-05-18T07:19:27.237Z,54.16
2019-05-18T07:21:35.547Z,54.51
2019-05-18T07:23:44.007Z,55.67
2019-05-18T07:25:52.438Z,55.34
2019-05-18T07:28:00.546Z,55.52
2019-05-18T07:30:21.697Z,56.11
2019-05-18T07:32:29.981Z,55.68
2019-05-18T07:34:37.990Z,55.20
2019-05-18T07:36:47.432Z,55.06
2019-05-18T07:38:55.410Z,53.30
2019-05-18T07:41:03.626Z,51.30
2019-05-18T07:43:12.011Z,52.38
2019-05-18T07:45:20.781Z,52.24
2019-05-18T07:47:28.938Z,50.97
2019-05-18T07:49:36.918Z,50.47
2019-05-18T07:51:44.806Z,51.05
2019-05-18T07:53:52.710Z,49.54
2019-05-18T07:56:00.752Z,49.64
2019-05-18T07:58:09.352Z,50.89
2019-05-18T08:00:17.596Z,50.56
2019-05-18T08:02:25.484Z,49.97
2019-05-18T08:04:33.535Z,49.48
2019-05-18T08:06:41.461Z,48.77
2019-05-18T08:08:50.892Z,48.56
2019-05-18T08:10:58.890Z,50.08
2019-05-18T08:13:08.342Z,50.17
2019-05-18T08:15:16.976Z,48.03
2019-05-18T08:17:25.260Z,49.04
2019-05-18T08:19:34.240Z,50.30
2019-05-18T08:21:52.627Z,50.40
2019-05-18T08:23:52.397Z,50.37
2019-05-18T08:26:00.275Z,48.85
2019-05-18T08:28:09.276Z,48.89
2019-05-18T08:30:17.220Z,48.36
2019-05-18T08:32:25.141Z,46.05
2019-05-18T08:34:33.141Z,47.68
2019-05-18T08:36:42.465Z,47.76
2019-05-18T08:38:50.679Z,46.57
2019-05-18T08:40:58.858Z,46.40
2019-05-18T08:43:07.242Z,48.86
2019-05-18T08:45:17.047Z,48.61
2019-05-18T08:47:25.909Z,49.16
2019-05-18T08:49:33.979Z,49.94
2019-05-18T08:51:42.875Z,48.26
2019-05-18T08:53:51.248Z,49.43
2019-05-18T08:56:00.107Z,48.89
2019-05-18T08:58:08.646Z,48.28
2019-05-18T09:00:17.200Z,48.04
2019-05-18T09:02:25.484Z,46.31
2019-05-18T09:04:33.843Z,46.35
2019-05-18T09:06:43.117Z,45.12
2019-05-18T09:08:51.099Z,45.69
2019-05-18T09:10:59.178Z,45.71
2019-05-18T09:13:07.064Z,46.39
2019-05-18T09:15:15.972Z,46.82
2019-05-18T09:17:23.958Z,44.36
2019-05-18T09:19:32.327Z,45.18
2019-05-18T09:21:40.510Z,47.34
2019-05-18T09:23:51.808Z,46.33
2019-05-18T09:26:00.110Z,46.22
2019-05-18T09:28:08.399Z,46.49
2019-05-18T09:30:17.212Z,49.15
2019-05-18T09:32:25.091Z,47.30
2019-05-18T09:34:32.983Z,46.63
2019-05-18T09:36:42.484Z,44.67
2019-05-18T09:38:51.359Z,42.63
2019-05-18T09:40:59.367Z,41.17
2019-05-18T09:43:07.410Z,43.09
2019-05-18T09:45:17.827Z,44.91
2019-05-18T09:47:25.603Z,43.83
2019-05-18T09:49:33.777Z,43.63
2019-05-18T09:51:43.367Z,45.06
2019-05-18T09:53:52.239Z,44.61
2019-05-18T09:56:00.300Z,44.41
2019-05-18T09:58:08.710Z,43.92
2019-05-18T10:00:18.722Z,44.15
2019-05-18T10:02:27.001Z,41.66
2019-05-18T10:08:49.210Z,45.69
2019-05-18T10:10:57.191Z,44.57
2019-05-18T10:13:05.218Z,44.62
2019-05-18T10:15:13.802Z,44.18
2019-05-18T10:17:22.614Z,44.03
2019-05-18T10:19:30.549Z,46.55
2019-05-18T10:21:38.708Z,45.04
2019-05-18T10:23:46.765Z,45.57
2019-05-18T10:25:55.024Z,40.13
2019-05-18T10:28:03.454Z,42.22
2019-05-18T10:30:12.404Z,42.15
2019-05-18T10:32:20.785Z,40.75
2019-05-18T10:34:29.720Z,40.48
2019-05-18T10:36:37.708Z,42.10
2019-05-18T10:38:45.681Z,41.05
2019-05-18T10:40:53.587Z,40.00
2019-05-18T10:43:02.042Z,41.57
2019-05-18T10:45:11.232Z,40.42
2019-05-18T10:47:19.505Z,42.94
2019-05-18T10:49:27.744Z,41.96
2019-05-18T10:51:35.618Z,42.69
2019-05-18T10:53:43.762Z,44.32
2019-05-18T10:55:51.739Z,40.18
2019-05-18T10:57:59.792Z,39.98
2019-05-18T11:00:12.348Z,43.40
2019-05-18T11:02:20.411Z,43.74
2019-05-18T11:04:28.386Z,44.32
2019-05-18T11:06:39.169Z,41.52
2019-05-18T11:08:47.208Z,44.33
2019-05-18T11:10:56.163Z,45.31
2019-05-18T11:13:04.343Z,45.14
2019-05-18T11:15:13.989Z,42.90
2019-05-18T11:17:22.405Z,39.39
2019-05-18T11:19:30.337Z,40.61
2019-05-18T11:21:38.218Z,40.07
2019-05-18T11:23:48.129Z,39.22
2019-05-18T11:25:56.174Z,39.81
2019-05-18T11:28:04.441Z,40.23
2019-05-18T11:30:14.723Z,42.03
2019-05-18T11:32:23.003Z,41.63
2019-05-18T11:34:30.890Z,42.71
2019-05-18T11:36:38.766Z,44.22
2019-05-18T11:38:46.679Z,42.67
2019-05-18T11:40:54.730Z,43.29
2019-05-18T11:43:04.398Z,40.16
2019-05-18T11:45:16.834Z,40.26
2019-05-18T11:47:27.901Z,42.93
2019-05-18T11:49:37.102Z,42.75
2019-05-18T11:51:45.600Z,43.59
2019-05-18T11:53:58.411Z,43.61
2019-05-18T11:56:03.273Z,42.46
2019-05-18T11:58:11.345Z,40.00
2019-05-18T12:00:19.826Z,39.96
2019-05-18T12:02:27.710Z,39.00
2019-05-18T12:04:36.603Z,38.45
2019-05-18T12:06:44.577Z,36.75
2019-05-18T12:08:52.451Z,37.05
2019-05-18T12:11:00.435Z,39.50
2019-05-18T12:13:08.780Z,38.74
2019-05-18T12:15:19.252Z,41.70
2019-05-18T12:17:27.153Z,39.18
2019-05-18T12:19:36.300Z,36.91
2019-05-18T12:21:44.284Z,40.65
2019-05-18T12:23:52.294Z,40.98
2019-05-18T12:26:01.169Z,40.90
2019-05-18T12:28:09.433Z,41.61
2019-05-18T12:30:20.342Z,42.15
2019-05-18T12:32:30.067Z,40.81
2019-05-18T12:34:38.364Z,38.63
2019-05-18T12:36:46.778Z,39.88
2019-05-18T12:38:56.747Z,39.32
2019-05-18T12:41:07.517Z,39.94
2019-05-18T12:43:15.445Z,38.42
2019-05-18T12:45:24.670Z,39.31
2019-05-18T12:47:32.619Z,40.19
2019-05-18T12:49:40.700Z,39.97
2019-05-18T12:51:49.652Z,39.31
2019-05-18T12:53:57.782Z,40.54
2019-05-18T12:56:05.838Z,40.18
2019-05-18T12:58:15.093Z,39.93
2019-05-18T13:00:24.482Z,40.88
2019-05-18T13:02:32.710Z,40.60
2019-05-18T13:04:41.939Z,38.41
2019-05-18T13:06:50.360Z,38.63
2019-05-18T13:08:58.440Z,40.11
2019-05-18T13:11:07.115Z,39.69
2019-05-18T13:13:15.322Z,38.21
2019-05-18T13:15:23.919Z,39.21
2019-05-18T13:17:33.209Z,38.69
2019-05-18T13:19:41.159Z,37.50
2019-05-18T13:21:49.197Z,36.13
2019-05-18T13:23:57.179Z,36.55
2019-05-18T13:26:05.526Z,38.47
2019-05-18T13:28:13.499Z,39.27
2019-05-18T13:30:23.968Z,39.85
2019-05-18T13:32:31.829Z,37.61
2019-05-18T13:34:39.745Z,40.02
2019-05-18T13:36:48.100Z,41.41
2019-05-18T13:38:55.993Z,36.64
2019-05-18T13:41:04.538Z,38.93
2019-05-18T13:43:12.514Z,42.06
2019-05-18T13:45:21.029Z,42.12
2019-05-18T13:47:32.040Z,41.21
2019-05-18T13:49:40.322Z,40.56
2019-05-18T13:51:49.194Z,38.64
2019-05-18T13:53:57.138Z,39.81
2019-05-18T13:56:05.431Z,39.78
2019-05-18T13:58:13.414Z,39.64
2019-05-18T14:00:23.562Z,38.83
2019-05-18T14:02:31.545Z,36.04
2019-05-18T14:04:39.615Z,35.13
2019-05-18T14:06:47.536Z,37.25
2019-05-18T14:08:55.500Z,38.95
2019-05-18T14:11:03.971Z,37.48
2019-05-18T14:13:12.368Z,36.40
2019-05-18T14:15:23.025Z,37.24
2019-05-18T14:17:30.212Z,37.12
2019-05-18T14:19:38.124Z,33.62
2019-05-18T14:21:46.235Z,34.99
2019-05-18T14:23:55.492Z,36.38
2019-05-18T14:26:03.476Z,37.00
2019-05-18T14:28:11.429Z,34.62
2019-05-18T14:30:20.657Z,36.36
2019-05-18T14:32:28.567Z,36.55
2019-05-18T14:34:36.518Z,33.99
2019-05-18T14:36:44.557Z,33.74
2019-05-18T14:38:56.713Z,32.63
2019-05-18T14:41:02.644Z,33.00
2019-05-18T14:43:10.667Z,34.70
2019-05-18T14:45:19.466Z,35.91
2019-05-18T14:47:27.682Z,36.73
2019-05-18T14:49:35.999Z,36.04
2019-05-18T14:51:44.248Z,35.70
2019-05-18T14:53:52.632Z,36.84
2019-05-18T14:56:00.808Z,37.61
2019-05-18T14:58:09.618Z,37.33
2019-05-18T15:00:20.686Z,38.96
2019-05-18T15:02:28.659Z,39.26
2019-05-18T15:04:37.592Z,38.35
2019-05-18T15:06:45.484Z,39.03
2019-05-18T15:08:54.368Z,39.70
2019-05-18T15:11:02.809Z,39.87
2019-05-18T15:13:10.846Z,39.60
2019-05-18T15:15:19.046Z,40.31
2019-05-18T15:17:26.973Z,40.33
2019-05-18T15:19:35.129Z,41.03
2019-05-18T15:21:43.124Z,41.21
2019-05-18T15:23:51.069Z,41.69
2019-05-18T15:25:58.939Z,42.09
2019-05-18T15:28:07.101Z,42.48
2019-05-18T15:30:17.209Z,43.21
2019-05-18T15:32:25.629Z,42.63
2019-05-18T15:34:33.592Z,42.79
2019-05-18T15:36:41.610Z,42.68
2019-05-18T15:38:50.179Z,42.95
2019-05-18T15:40:58.436Z,44.09
2019-05-18T15:43:06.460Z,44.19
2019-05-18T15:45:14.722Z,44.03
2019-05-18T15:47:22.853Z,44.23
2019-05-18T15:49:30.763Z,44.27
2019-05-18T15:51:38.654Z,43.39
2019-05-18T15:53:46.644Z,42.53
2019-05-18T15:56:05.236Z,43.52
2019-05-18T15:58:04.314Z,42.83
2019-05-18T16:00:12.829Z,42.70
2019-05-18T16:02:21.286Z,43.20
2019-05-18T16:04:29.490Z,42.73
2019-05-18T16:06:38.528Z,42.49
2019-05-18T16:08:47.423Z,42.77
2019-05-18T16:10:57.361Z,43.40
2019-05-18T16:13:05.366Z,43.63
2019-05-18T16:15:14.737Z,42.35
2019-05-18T16:17:38.096Z,42.66
2019-05-18T16:19:32.274Z,42.77
2019-05-18T16:21:40.353Z,42.23
2019-05-18T16:23:48.342Z,42.42
2019-05-18T16:25:56.222Z,42.25
2019-05-18T16:28:04.206Z,42.21
2019-05-18T16:30:12.754Z,42.15
2019-05-18T16:32:21.049Z,42.83
2019-05-18T16:34:28.987Z,43.39
2019-05-18T16:36:36.886Z,43.57
2019-05-18T16:38:44.885Z,44.48
2019-05-18T16:40:52.896Z,44.03
2019-05-18T16:43:01.767Z,43.69
2019-05-18T16:45:10.730Z,43.91
2019-05-18T16:47:19.902Z,44.16
2019-05-18T16:49:27.886Z,44.93
2019-05-18T16:51:35.880Z,45.47
2019-05-18T16:53:48.141Z,45.06
2019-05-18T16:55:54.687Z,45.59
2019-05-18T16:58:02.902Z,45.67
2019-05-18T17:00:16.231Z,44.84
2019-05-18T17:02:31.674Z,44.76
2019-05-18T17:04:34.484Z,44.71
2019-05-18T17:06:42.498Z,45.11
2019-05-18T17:08:50.481Z,45.09
2019-05-18T17:10:58.478Z,45.00
2019-05-18T17:13:06.870Z,44.92
2019-05-18T17:15:16.876Z,45.20
2019-05-18T17:17:25.133Z,45.51
2019-05-18T17:19:33.051Z,45.87
2019-05-18T17:21:41.052Z,46.49
2019-05-18T17:23:49.025Z,46.37
2019-05-18T17:25:56.967Z,46.87
2019-05-18T17:28:04.997Z,47.26
2019-05-18T17:30:13.367Z,47.43
2019-05-18T17:32:21.289Z,47.78
2019-05-18T17:34:29.249Z,46.93
2019-05-18T17:36:38.213Z,46.96
2019-05-18T17:38:46.269Z,46.42
2019-05-18T17:40:54.496Z,46.58
2019-05-18T17:43:02.499Z,46.89
2019-05-18T17:45:11.900Z,47.03
2019-05-18T17:47:19.803Z,46.84
2019-05-18T17:49:28.072Z,46.29
2019-05-18T17:51:36.387Z,46.35
2019-05-18T17:53:44.824Z,46.43
2019-05-18T17:55:52.820Z,46.30
2019-05-18T17:58:00.835Z,45.97
2019-05-18T18:00:11.173Z,46.18
2019-05-18T18:02:19.063Z,46.18
2019-05-18T18:04:27.095Z,46.04
2019-05-18T18:06:35.460Z,46.31
2019-05-18T18:08:43.736Z,46.34
2019-05-18T18:10:51.723Z,46.31
2019-05-18T18:12:59.926Z,47.49
2019-05-18T18:15:09.298Z,48.03
2019-05-18T18:17:17.905Z,48.72
2019-05-18T18:19:25.893Z,49.03
2019-05-18T18:21:33.806Z,49.15
2019-05-18T18:23:41.719Z,49.65
2019-05-18T18:25:49.678Z,49.12
2019-05-18T18:27:57.612Z,48.59
2019-05-18T18:30:12.104Z,48.36
2019-05-18T18:32:20.471Z,48.61
2019-05-18T18:34:28.705Z,49.12
2019-05-18T18:36:36.636Z,49.92
2019-05-18T18:38:45.072Z,49.86
2019-05-18T18:40:54.316Z,50.30
2019-05-18T18:43:02.333Z,50.08
2019-05-18T18:45:11.283Z,50.02
2019-05-18T18:47:19.236Z,49.66
2019-05-18T18:49:27.290Z,49.85
2019-05-18T18:51:35.332Z,50.74
2019-05-18T18:53:44.192Z,50.86
2019-05-18T18:55:53.107Z,51.26
2019-05-18T18:58:02.491Z,51.72
2019-05-18T19:00:12.789Z,52.19
2019-05-18T19:02:20.900Z,52.69
2019-05-18T19:04:28.894Z,53.27
2019-05-18T19:06:36.954Z,53.79
2019-05-18T19:08:45.116Z,54.23
2019-05-18T19:10:53.073Z,54.77
2019-05-18T19:13:00.984Z,55.34
2019-05-18T19:15:10.613Z,55.87
2019-05-18T19:17:18.755Z,56.32
2019-05-18T19:19:26.958Z,56.64
2019-05-18T19:21:35.093Z,56.74
2019-05-18T19:23:43.077Z,56.90
2019-05-18T19:25:51.959Z,57.38
2019-05-18T19:28:00.098Z,58.00
2019-05-18T19:30:10.334Z,58.25
2019-05-18T19:32:18.280Z,58.82
2019-05-18T19:34:26.404Z,59.02
2019-05-18T19:36:34.322Z,59.19
2019-05-18T19:38:42.677Z,59.30
2019-05-18T19:40:50.711Z,60.06
2019-05-18T19:42:59.650Z,60.07
2019-05-18T19:45:11.441Z,61.04
2019-05-18T19:47:19.392Z,61.45
2019-05-18T19:49:27.393Z,61.47
2019-05-18T19:51:36.430Z,62.17
2019-05-18T19:53:44.479Z,62.52
2019-05-18T19:55:52.375Z,63.37
2019-05-18T19:58:08.515Z,62.92
2019-05-18T20:00:12.997Z,63.46
2019-05-18T20:02:20.957Z,63.65
2019-05-18T20:04:29.140Z,64.45
2019-05-18T20:06:37.460Z,64.82
2019-05-18T20:08:45.553Z,64.84
2019-05-18T20:10:53.952Z,65.06
2019-05-18T20:13:02.049Z,65.64
2019-05-18T20:15:10.788Z,65.69
2019-05-18T20:17:18.709Z,66.25
2019-05-18T20:19:38.553Z,65.99
2019-05-18T20:21:37.402Z,66.34
2019-05-18T20:23:45.306Z,66.61
2019-05-18T20:25:53.248Z,66.53
2019-05-18T20:28:01.235Z,66.66
2019-05-18T20:30:11.827Z,66.81
2019-05-18T20:32:19.833Z,66.95
2019-05-18T20:34:27.889Z,66.88
2019-05-18T20:36:36.054Z,66.88
2019-05-18T20:38:44.576Z,66.90
2019-05-18T20:40:52.559Z,66.89
2019-05-18T20:43:00.562Z,67.26
2019-05-18T20:45:09.590Z,67.14
2019-05-18T20:47:17.560Z,67.09
2019-05-18T20:49:25.548Z,66.91
2019-05-18T20:51:33.490Z,66.86
2019-05-18T20:53:41.469Z,67.02
2019-05-18T20:55:49.534Z,67.28
2019-05-18T20:57:57.544Z,67.42
2019-05-18T21:00:06.550Z,67.93
2019-05-18T21:02:16.148Z,68.05
2019-05-18T21:04:24.171Z,68.21
2019-05-18T21:06:32.070Z,68.35
2019-05-18T21:08:40.192Z,68.60
2019-05-18T21:10:49.211Z,68.56
2019-05-18T21:12:57.108Z,68.53
2019-05-18T21:15:08.236Z,68.55
2019-05-18T21:17:16.704Z,68.38
2019-05-18T21:19:24.699Z,68.08
2019-05-18T21:21:32.599Z,68.00
2019-05-18T21:23:40.584Z,68.22
2019-05-18T21:25:48.478Z,68.68
2019-05-18T21:27:56.770Z,68.88
2019-05-18T21:30:06.693Z,69.08
2019-05-18T21:32:14.595Z,69.64
2019-05-18T21:34:22.482Z,69.83
2019-05-18T21:36:30.399Z,69.71
2019-05-18T21:38:38.292Z,69.85
2019-05-18T21:40:46.328Z,69.72
2019-05-18T21:42:55.270Z,69.61
2019-05-18T21:45:03.442Z,69.49
2019-05-18T21:47:11.741Z,69.54
2019-05-18T21:49:19.889Z,69.54
2019-05-18T21:51:27.947Z,69.40
2019-05-18T21:53:35.936Z,69.46
2019-05-18T21:55:44.191Z,69.33
2019-05-18T21:57:52.330Z,69.28
2019-05-18T22:00:00.736Z,69.80
2019-05-18T22:02:09.867Z,69.67
2019-05-18T22:04:18.060Z,69.79
2019-05-18T22:06:26.063Z,70.09
2019-05-18T22:08:33.994Z,70.23
2019-05-18T22:10:41.882Z,70.34
2019-05-18T22:12:49.883Z,70.60
2019-05-18T22:14:58.032Z,70.89
2019-05-18T22:17:06.419Z,71.10
2019-05-18T22:19:14.313Z,71.38
2019-05-18T22:21:23.257Z,71.46
2019-05-18T22:23:31.256Z,71.53
2019-05-18T22:25:39.167Z,71.47
2019-05-18T22:27:47.357Z,71.35
2019-05-18T22:29:56.721Z,71.31
2019-05-18T22:32:04.677Z,71.26
2019-05-18T22:34:13.004Z,71.32
2019-05-18T22:36:21.028Z,71.47
2019-05-18T22:38:29.384Z,71.44
2019-05-18T22:40:37.454Z,71.58
2019-05-18T22:42:45.823Z,71.61
2019-05-18T22:44:53.713Z,71.68
2019-05-18T22:47:01.746Z,71.76
2019-05-18T22:49:09.722Z,71.93
2019-05-18T22:51:19.342Z,71.93
2019-05-18T22:53:27.368Z,72.05
2019-05-18T22:55:35.766Z,72.02
2019-05-18T22:57:44.049Z,72.00
2019-05-18T22:59:53.012Z,72.03
2019-05-18T23:02:00.977Z,71.97
2019-05-18T23:04:09.479Z,72.05
2019-05-18T23:06:17.423Z,72.19
2019-05-18T23:08:25.455Z,72.23
2019-05-18T23:10:33.444Z,72.54
2019-05-18T23:12:42.472Z,72.57
2019-05-18T23:14:50.397Z,72.64
2019-05-18T23:16:58.287Z,72.84
2019-05-18T23:19:06.707Z,72.86
2019-05-18T23:21:14.600Z,72.95
2019-05-18T23:23:22.686Z,72.81
2019-05-18T23:25:30.712Z,72.80
2019-05-18T23:27:38.598Z,72.69
2019-05-18T23:29:46.492Z,72.80
2019-05-18T23:31:54.497Z,72.91
2019-05-18T23:34:02.465Z,72.98
2019-05-18T23:36:10.821Z,73.06
2019-05-18T23:38:18.841Z,73.15
2019-05-18T23:40:26.820Z,73.15
2019-05-18T23:42:34.778Z,73.13
2019-05-18T23:44:42.903Z,73.19
2019-05-18T23:46:51.071Z,73.14
2019-05-18T23:49:10.073Z,72.96
2019-05-18T23:51:09.633Z,72.95
2019-05-18T23:53:17.528Z,72.95
2019-05-18T23:55:25.656Z,73.07
2019-05-18T23:57:34.762Z,73.02
2019-05-18T23:59:42.637Z,73.02
